sensor_id;sensor_type;location;lat;lon;timestamp;temperature;humidity
41756;DHT22;27435;48.480;9.258;2023-05-14T00:02:19;10.50;99.00
41756;DHT22;27435;48.480;9.258;2023-05-14T00:04:45;10.50;99.00
41756;DHT22;27435;48.480;9.258;2023-05-14T00:07:11;10.70;99.00
41756;DHT22;27435;48.480;9.258;2023-05-14T00:09:36;10.70;99.00
41756;DHT22;27435;48.480;9.258;2023-05-14T00:12:02;10.60;99.00
41756;DHT22;27435;48.480;9.258;2023-05-14T00:14:28;10.60;99.00
41756;DHT22;27435;48.480;9.258;2023-05-14T00:16:54;10.50;99.00
41756;DHT22;27435;48.480;9.258;2023-05-14T00:19:19;10.50;99.00
41756;DHT22;27435;48.480;9.258;2023-05-14T00:21:46;10.40;99.00
41756;DHT22;27435;48.480;9.258;2023-05-14T00:24:12;10.40;99.00
41756;DHT22;27435;48.480;9.258;2023-05-14T00:26:37;10.50;99.00
41756;DHT22;27435;48.480;9.258;2023-05-14T00:29:03;10.50;99.00
41756;DHT22;27435;48.480;9.258;2023-05-14T00:31:28;10.40;99.00
41756;DHT22;27435;48.480;9.258;2023-05-14T00:33:54;10.60;99.00
41756;DHT22;27435;48.480;9.258;2023-05-14T00:36:20;10.50;99.00
41756;DHT22;27435;48.480;9.258;2023-05-14T00:38:45;10.50;99.00
41756;DHT22;27435;48.480;9.258;2023-05-14T00:41:11;10.40;99.00
41756;DHT22;27435;48.480;9.258;2023-05-14T00:43:37;10.20;99.00
41756;DHT22;27435;48.480;9.258;2023-05-14T00:46:02;10.30;99.00
41756;DHT22;27435;48.480;9.258;2023-05-14T00:48:28;10.40;99.00
41756;DHT22;27435;48.480;9.258;2023-05-14T00:50:54;10.40;99.00
41756;DHT22;27435;48.480;9.258;2023-05-14T00:53:20;10.40;99.00
41756;DHT22;27435;48.480;9.258;2023-05-14T00:55:48;10.50;99.00
41756;DHT22;27435;48.480;9.258;2023-05-14T00:58:14;10.50;99.00
41756;DHT22;27435;48.480;9.258;2023-05-14T01:00:40;10.40;99.00
41756;DHT22;27435;48.480;9.258;2023-05-14T01:03:07;10.30;99.00
41756;DHT22;27435;48.480;9.258;2023-05-14T01:09:06;10.50;99.00
41756;DHT22;27435;48.480;9.258;2023-05-14T01:16:39;10.70;99.00
41756;DHT22;27435;48.480;9.258;2023-05-14T01:19:12;10.70;99.00
41756;DHT22;27435;48.480;9.258;2023-05-14T01:21:44;10.70;99.00
41756;DHT22;27435;48.480;9.258;2023-05-14T01:24:10;10.60;99.00
41756;DHT22;27435;48.480;9.258;2023-05-14T01:26:36;10.60;99.00
41756;DHT22;27435;48.480;9.258;2023-05-14T01:29:18;10.40;99.00
41756;DHT22;27435;48.480;9.258;2023-05-14T01:31:46;10.30;99.00
41756;DHT22;27435;48.480;9.258;2023-05-14T01:34:13;10.20;99.00
41756;DHT22;27435;48.480;9.258;2023-05-14T01:36:41;10.20;99.00
41756;DHT22;27435;48.480;9.258;2023-05-14T01:39:07;10.20;99.00
41756;DHT22;27435;48.480;9.258;2023-05-14T01:41:36;10.30;99.00
41756;DHT22;27435;48.480;9.258;2023-05-14T01:44:03;10.20;99.00
41756;DHT22;27435;48.480;9.258;2023-05-14T01:46:32;10.10;99.00
41756;DHT22;27435;48.480;9.258;2023-05-14T01:48:58;9.80;99.00
41756;DHT22;27435;48.480;9.258;2023-05-14T01:51:24;9.70;99.00
41756;DHT22;27435;48.480;9.258;2023-05-14T01:53:50;9.70;99.00
41756;DHT22;27435;48.480;9.258;2023-05-14T01:56:16;9.80;99.00
41756;DHT22;27435;48.480;9.258;2023-05-14T01:58:42;9.80;99.00
41756;DHT22;27435;48.480;9.258;2023-05-14T02:01:08;9.80;99.00
41756;DHT22;27435;48.480;9.258;2023-05-14T02:03:33;9.80;99.00
41756;DHT22;27435;48.480;9.258;2023-05-14T02:05:59;9.70;99.00
41756;DHT22;27435;48.480;9.258;2023-05-14T02:08:25;9.70;99.00
41756;DHT22;27435;48.480;9.258;2023-05-14T02:10:50;9.60;99.00
41756;DHT22;27435;48.480;9.258;2023-05-14T02:13:16;9.70;99.00
41756;DHT22;27435;48.480;9.258;2023-05-14T02:15:42;9.70;99.00
41756;DHT22;27435;48.480;9.258;2023-05-14T02:18:07;9.80;99.00
41756;DHT22;27435;48.480;9.258;2023-05-14T02:20:33;9.90;99.00
41756;DHT22;27435;48.480;9.258;2023-05-14T02:22:58;10.20;99.00
41756;DHT22;27435;48.480;9.258;2023-05-14T02:25:24;10.40;99.00
41756;DHT22;27435;48.480;9.258;2023-05-14T02:27:49;10.50;99.00
41756;DHT22;27435;48.480;9.258;2023-05-14T02:30:15;10.40;99.00
41756;DHT22;27435;48.480;9.258;2023-05-14T02:32:41;10.40;99.00
41756;DHT22;27435;48.480;9.258;2023-05-14T02:35:07;10.50;99.00
41756;DHT22;27435;48.480;9.258;2023-05-14T02:37:32;10.50;99.00
41756;DHT22;27435;48.480;9.258;2023-05-14T02:39:59;10.60;99.00
41756;DHT22;27435;48.480;9.258;2023-05-14T02:42:25;10.70;99.00
41756;DHT22;27435;48.480;9.258;2023-05-14T02:44:51;10.70;99.00
41756;DHT22;27435;48.480;9.258;2023-05-14T02:47:17;10.70;99.00
41756;DHT22;27435;48.480;9.258;2023-05-14T02:49:42;10.70;99.00
41756;DHT22;27435;48.480;9.258;2023-05-14T02:52:08;10.70;99.00
41756;DHT22;27435;48.480;9.258;2023-05-14T02:54:34;10.80;99.00
41756;DHT22;27435;48.480;9.258;2023-05-14T02:56:59;10.70;99.00
41756;DHT22;27435;48.480;9.258;2023-05-14T02:59:26;10.60;99.00
41756;DHT22;27435;48.480;9.258;2023-05-14T03:01:51;10.60;99.00
41756;DHT22;27435;48.480;9.258;2023-05-14T03:04:17;10.70;99.00
41756;DHT22;27435;48.480;9.258;2023-05-14T03:06:43;10.70;99.00
41756;DHT22;27435;48.480;9.258;2023-05-14T03:09:08;10.80;99.00
41756;DHT22;27435;48.480;9.258;2023-05-14T03:11:34;10.80;99.00
41756;DHT22;27435;48.480;9.258;2023-05-14T03:14:00;10.80;99.00
41756;DHT22;27435;48.480;9.258;2023-05-14T03:16:26;10.70;99.00
41756;DHT22;27435;48.480;9.258;2023-05-14T03:18:51;10.80;99.00
41756;DHT22;27435;48.480;9.258;2023-05-14T03:21:17;10.80;99.00
41756;DHT22;27435;48.480;9.258;2023-05-14T03:23:43;10.80;99.00
41756;DHT22;27435;48.480;9.258;2023-05-14T03:26:08;10.90;99.00
41756;DHT22;27435;48.480;9.258;2023-05-14T03:28:34;10.90;99.00
41756;DHT22;27435;48.480;9.258;2023-05-14T03:31:00;10.90;99.00
41756;DHT22;27435;48.480;9.258;2023-05-14T03:33:25;10.90;99.00
41756;DHT22;27435;48.480;9.258;2023-05-14T03:35:51;10.90;99.00
41756;DHT22;27435;48.480;9.258;2023-05-14T03:38:17;11.00;99.00
41756;DHT22;27435;48.480;9.258;2023-05-14T03:40:43;11.10;99.00
41756;DHT22;27435;48.480;9.258;2023-05-14T03:43:09;11.10;99.00
41756;DHT22;27435;48.480;9.258;2023-05-14T03:45:35;11.10;99.00
41756;DHT22;27435;48.480;9.258;2023-05-14T03:48:01;11.10;99.00
41756;DHT22;27435;48.480;9.258;2023-05-14T03:50:26;10.90;99.00
41756;DHT22;27435;48.480;9.258;2023-05-14T03:52:52;10.90;99.00
41756;DHT22;27435;48.480;9.258;2023-05-14T03:55:19;10.90;99.00
41756;DHT22;27435;48.480;9.258;2023-05-14T03:57:46;10.70;99.00
41756;DHT22;27435;48.480;9.258;2023-05-14T04:00:12;10.80;99.00
41756;DHT22;27435;48.480;9.258;2023-05-14T04:02:38;10.90;99.00
41756;DHT22;27435;48.480;9.258;2023-05-14T04:05:03;11.10;99.00
41756;DHT22;27435;48.480;9.258;2023-05-14T04:07:29;11.20;99.00
41756;DHT22;27435;48.480;9.258;2023-05-14T04:09:55;11.00;99.00
41756;DHT22;27435;48.480;9.258;2023-05-14T04:12:21;11.00;99.00
41756;DHT22;27435;48.480;9.258;2023-05-14T04:14:46;11.00;99.00
41756;DHT22;27435;48.480;9.258;2023-05-14T04:17:12;11.10;99.00
41756;DHT22;27435;48.480;9.258;2023-05-14T04:19:37;11.00;99.00
41756;DHT22;27435;48.480;9.258;2023-05-14T04:22:04;11.10;99.00
41756;DHT22;27435;48.480;9.258;2023-05-14T04:24:30;11.20;99.00
41756;DHT22;27435;48.480;9.258;2023-05-14T04:26:55;11.20;99.00
41756;DHT22;27435;48.480;9.258;2023-05-14T04:29:21;11.30;99.00
41756;DHT22;27435;48.480;9.258;2023-05-14T04:31:48;11.40;99.00
41756;DHT22;27435;48.480;9.258;2023-05-14T04:34:14;11.40;99.00
41756;DHT22;27435;48.480;9.258;2023-05-14T04:36:39;11.40;99.00
41756;DHT22;27435;48.480;9.258;2023-05-14T04:39:05;11.40;99.00
41756;DHT22;27435;48.480;9.258;2023-05-14T04:41:31;11.40;99.00
41756;DHT22;27435;48.480;9.258;2023-05-14T04:43:59;11.30;99.00
41756;DHT22;27435;48.480;9.258;2023-05-14T04:46:25;11.30;99.00
41756;DHT22;27435;48.480;9.258;2023-05-14T04:48:51;11.20;99.00
41756;DHT22;27435;48.480;9.258;2023-05-14T04:51:16;11.30;99.00
41756;DHT22;27435;48.480;9.258;2023-05-14T04:53:42;11.50;99.00
41756;DHT22;27435;48.480;9.258;2023-05-14T04:56:09;11.50;99.00
41756;DHT22;27435;48.480;9.258;2023-05-14T04:58:35;11.40;99.00
41756;DHT22;27435;48.480;9.258;2023-05-14T05:01:03;11.60;99.00
41756;DHT22;27435;48.480;9.258;2023-05-14T05:03:29;11.50;99.00
41756;DHT22;27435;48.480;9.258;2023-05-14T05:05:55;11.50;99.00
41756;DHT22;27435;48.480;9.258;2023-05-14T05:08:21;11.50;99.00
41756;DHT22;27435;48.480;9.258;2023-05-14T05:10:47;11.50;99.00
41756;DHT22;27435;48.480;9.258;2023-05-14T05:13:12;11.50;99.00
41756;DHT22;27435;48.480;9.258;2023-05-14T05:15:39;11.50;99.00
41756;DHT22;27435;48.480;9.258;2023-05-14T05:18:05;11.50;99.00
41756;DHT22;27435;48.480;9.258;2023-05-14T05:20:31;11.50;99.00
41756;DHT22;27435;48.480;9.258;2023-05-14T05:22:56;11.40;99.00
41756;DHT22;27435;48.480;9.258;2023-05-14T05:25:22;11.40;99.00
41756;DHT22;27435;48.480;9.258;2023-05-14T05:27:48;11.30;99.00
41756;DHT22;27435;48.480;9.258;2023-05-14T05:30:13;11.20;99.00
41756;DHT22;27435;48.480;9.258;2023-05-14T05:32:39;11.00;99.00
41756;DHT22;27435;48.480;9.258;2023-05-14T05:35:05;11.10;99.00
41756;DHT22;27435;48.480;9.258;2023-05-14T05:37:31;11.10;99.00
41756;DHT22;27435;48.480;9.258;2023-05-14T05:39:57;11.30;99.00
41756;DHT22;27435;48.480;9.258;2023-05-14T05:42:23;11.20;99.00
41756;DHT22;27435;48.480;9.258;2023-05-14T05:44:49;11.30;99.00
41756;DHT22;27435;48.480;9.258;2023-05-14T05:47:14;11.20;99.00
41756;DHT22;27435;48.480;9.258;2023-05-14T05:49:41;11.20;99.00
41756;DHT22;27435;48.480;9.258;2023-05-14T05:52:07;11.10;99.00
41756;DHT22;27435;48.480;9.258;2023-05-14T05:54:33;11.10;99.00
41756;DHT22;27435;48.480;9.258;2023-05-14T05:56:58;11.20;99.00
41756;DHT22;27435;48.480;9.258;2023-05-14T05:59:24;11.20;99.00
41756;DHT22;27435;48.480;9.258;2023-05-14T06:01:50;11.30;99.00
41756;DHT22;27435;48.480;9.258;2023-05-14T06:04:15;11.20;99.00
41756;DHT22;27435;48.480;9.258;2023-05-14T06:06:41;11.40;99.00
41756;DHT22;27435;48.480;9.258;2023-05-14T06:09:06;11.50;99.00
41756;DHT22;27435;48.480;9.258;2023-05-14T06:11:33;11.70;99.00
41756;DHT22;27435;48.480;9.258;2023-05-14T06:13:59;11.60;99.00
41756;DHT22;27435;48.480;9.258;2023-05-14T06:16:25;11.60;99.00
41756;DHT22;27435;48.480;9.258;2023-05-14T06:18:51;11.50;99.00
41756;DHT22;27435;48.480;9.258;2023-05-14T06:21:17;11.50;99.00
41756;DHT22;27435;48.480;9.258;2023-05-14T06:23:43;11.50;99.00
41756;DHT22;27435;48.480;9.258;2023-05-14T06:26:09;11.40;99.00
41756;DHT22;27435;48.480;9.258;2023-05-14T06:28:34;11.40;99.00
41756;DHT22;27435;48.480;9.258;2023-05-14T06:31:00;11.20;99.00
41756;DHT22;27435;48.480;9.258;2023-05-14T06:33:26;11.10;99.00
41756;DHT22;27435;48.480;9.258;2023-05-14T06:35:57;11.20;99.00
41756;DHT22;27435;48.480;9.258;2023-05-14T06:38:22;11.10;99.00
41756;DHT22;27435;48.480;9.258;2023-05-14T06:40:48;11.00;99.00
41756;DHT22;27435;48.480;9.258;2023-05-14T06:43:13;10.90;99.00
41756;DHT22;27435;48.480;9.258;2023-05-14T06:45:39;10.90;99.00
41756;DHT22;27435;48.480;9.258;2023-05-14T06:48:05;10.90;99.00
41756;DHT22;27435;48.480;9.258;2023-05-14T06:50:30;10.90;99.00
41756;DHT22;27435;48.480;9.258;2023-05-14T06:52:56;11.00;99.00
41756;DHT22;27435;48.480;9.258;2023-05-14T06:55:22;11.10;99.00
41756;DHT22;27435;48.480;9.258;2023-05-14T06:57:47;11.30;99.00
41756;DHT22;27435;48.480;9.258;2023-05-14T07:00:13;11.20;99.00
41756;DHT22;27435;48.480;9.258;2023-05-14T07:02:39;11.20;99.00
41756;DHT22;27435;48.480;9.258;2023-05-14T07:05:05;11.20;99.00
41756;DHT22;27435;48.480;9.258;2023-05-14T07:07:32;11.30;99.00
41756;DHT22;27435;48.480;9.258;2023-05-14T07:09:58;11.30;99.00
41756;DHT22;27435;48.480;9.258;2023-05-14T07:12:24;11.20;99.00
41756;DHT22;27435;48.480;9.258;2023-05-14T07:14:50;11.30;99.00
41756;DHT22;27435;48.480;9.258;2023-05-14T07:17:15;11.50;99.00
41756;DHT22;27435;48.480;9.258;2023-05-14T07:19:41;11.80;99.00
41756;DHT22;27435;48.480;9.258;2023-05-14T07:22:06;11.90;99.00
41756;DHT22;27435;48.480;9.258;2023-05-14T07:24:32;12.10;99.00
41756;DHT22;27435;48.480;9.258;2023-05-14T07:26:58;12.20;99.00
41756;DHT22;27435;48.480;9.258;2023-05-14T07:29:23;12.30;99.00
41756;DHT22;27435;48.480;9.258;2023-05-14T07:31:50;12.00;99.00
41756;DHT22;27435;48.480;9.258;2023-05-14T07:34:15;12.00;99.00
41756;DHT22;27435;48.480;9.258;2023-05-14T07:36:41;12.10;99.00
41756;DHT22;27435;48.480;9.258;2023-05-14T07:39:07;12.30;99.00
41756;DHT22;27435;48.480;9.258;2023-05-14T07:41:33;12.60;99.00
41756;DHT22;27435;48.480;9.258;2023-05-14T07:43:58;12.80;99.00
41756;DHT22;27435;48.480;9.258;2023-05-14T07:46:24;12.90;99.00
41756;DHT22;27435;48.480;9.258;2023-05-14T07:48:50;12.90;99.00
41756;DHT22;27435;48.480;9.258;2023-05-14T07:51:16;12.90;99.00
41756;DHT22;27435;48.480;9.258;2023-05-14T07:53:41;13.10;99.00
41756;DHT22;27435;48.480;9.258;2023-05-14T07:56:07;13.00;99.00
41756;DHT22;27435;48.480;9.258;2023-05-14T07:58:33;12.90;99.00
41756;DHT22;27435;48.480;9.258;2023-05-14T08:00:59;13.00;99.00
41756;DHT22;27435;48.480;9.258;2023-05-14T08:03:25;13.10;99.00
41756;DHT22;27435;48.480;9.258;2023-05-14T08:05:51;13.10;99.00
41756;DHT22;27435;48.480;9.258;2023-05-14T08:08:17;13.50;99.00
41756;DHT22;27435;48.480;9.258;2023-05-14T08:10:43;13.70;99.00
41756;DHT22;27435;48.480;9.258;2023-05-14T08:13:08;14.00;99.00
41756;DHT22;27435;48.480;9.258;2023-05-14T08:15:34;14.30;99.00
41756;DHT22;27435;48.480;9.258;2023-05-14T08:17:59;14.30;99.00
41756;DHT22;27435;48.480;9.258;2023-05-14T08:20:29;14.10;99.00
41756;DHT22;27435;48.480;9.258;2023-05-14T08:22:55;14.10;99.00
41756;DHT22;27435;48.480;9.258;2023-05-14T08:25:22;14.00;99.00
41756;DHT22;27435;48.480;9.258;2023-05-14T08:27:48;14.30;99.00
41756;DHT22;27435;48.480;9.258;2023-05-14T08:30:14;14.50;99.00
41756;DHT22;27435;48.480;9.258;2023-05-14T08:32:39;14.70;99.00
41756;DHT22;27435;48.480;9.258;2023-05-14T08:35:05;14.90;99.00
41756;DHT22;27435;48.480;9.258;2023-05-14T08:37:31;14.90;99.00
41756;DHT22;27435;48.480;9.258;2023-05-14T08:39:57;14.70;99.00
41756;DHT22;27435;48.480;9.258;2023-05-14T08:42:24;14.90;99.00
41756;DHT22;27435;48.480;9.258;2023-05-14T08:45:00;14.80;99.00
41756;DHT22;27435;48.480;9.258;2023-05-14T08:47:29;14.90;99.00
41756;DHT22;27435;48.480;9.258;2023-05-14T08:50:03;15.00;99.00
41756;DHT22;27435;48.480;9.258;2023-05-14T08:52:30;15.10;99.00
41756;DHT22;27435;48.480;9.258;2023-05-14T08:55:00;15.10;99.00
41756;DHT22;27435;48.480;9.258;2023-05-14T08:57:27;15.30;99.00
41756;DHT22;27435;48.480;9.258;2023-05-14T08:59:54;15.30;99.00
41756;DHT22;27435;48.480;9.258;2023-05-14T09:02:28;15.10;99.00
41756;DHT22;27435;48.480;9.258;2023-05-14T09:04:59;15.00;99.00
41756;DHT22;27435;48.480;9.258;2023-05-14T09:07:25;15.10;99.00
41756;DHT22;27435;48.480;9.258;2023-05-14T09:09:52;14.60;99.00
41756;DHT22;27435;48.480;9.258;2023-05-14T09:12:24;14.40;99.00
41756;DHT22;27435;48.480;9.258;2023-05-14T09:14:53;14.20;99.00
41756;DHT22;27435;48.480;9.258;2023-05-14T09:17:19;14.30;99.00
41756;DHT22;27435;48.480;9.258;2023-05-14T09:19:46;14.10;99.00
41756;DHT22;27435;48.480;9.258;2023-05-14T09:22:16;13.90;99.00
41756;DHT22;27435;48.480;9.258;2023-05-14T09:24:42;14.10;99.00
41756;DHT22;27435;48.480;9.258;2023-05-14T09:27:17;14.20;99.00
41756;DHT22;27435;48.480;9.258;2023-05-14T09:29:45;14.30;99.00
41756;DHT22;27435;48.480;9.258;2023-05-14T09:32:14;14.20;99.00
41756;DHT22;27435;48.480;9.258;2023-05-14T09:34:44;13.80;99.00
41756;DHT22;27435;48.480;9.258;2023-05-14T09:37:10;13.70;99.00
41756;DHT22;27435;48.480;9.258;2023-05-14T09:39:37;13.50;99.00
41756;DHT22;27435;48.480;9.258;2023-05-14T09:42:03;13.30;99.00
41756;DHT22;27435;48.480;9.258;2023-05-14T09:44:29;13.40;99.00
41756;DHT22;27435;48.480;9.258;2023-05-14T09:46:55;13.40;99.00
41756;DHT22;27435;48.480;9.258;2023-05-14T09:49:21;13.50;99.00
41756;DHT22;27435;48.480;9.258;2023-05-14T09:51:50;13.40;99.00
41756;DHT22;27435;48.480;9.258;2023-05-14T09:54:15;13.50;99.00
41756;DHT22;27435;48.480;9.258;2023-05-14T09:56:43;13.40;99.00
41756;DHT22;27435;48.480;9.258;2023-05-14T09:59:08;13.50;99.00
41756;DHT22;27435;48.480;9.258;2023-05-14T10:01:35;13.50;99.00
41756;DHT22;27435;48.480;9.258;2023-05-14T10:04:02;13.60;99.00
41756;DHT22;27435;48.480;9.258;2023-05-14T10:06:35;13.80;99.00
41756;DHT22;27435;48.480;9.258;2023-05-14T10:09:03;14.20;99.00
41756;DHT22;27435;48.480;9.258;2023-05-14T10:11:32;14.60;99.00
41756;DHT22;27435;48.480;9.258;2023-05-14T10:14:12;14.40;99.00
41756;DHT22;27435;48.480;9.258;2023-05-14T10:17:00;14.50;99.00
41756;DHT22;27435;48.480;9.258;2023-05-14T10:19:32;14.90;99.00
41756;DHT22;27435;48.480;9.258;2023-05-14T10:22:06;15.20;99.00
41756;DHT22;27435;48.480;9.258;2023-05-14T10:24:33;15.90;99.00
41756;DHT22;27435;48.480;9.258;2023-05-14T10:26:58;16.10;99.00
41756;DHT22;27435;48.480;9.258;2023-05-14T10:29:32;16.20;99.00
41756;DHT22;27435;48.480;9.258;2023-05-14T10:32:06;16.00;99.00
41756;DHT22;27435;48.480;9.258;2023-05-14T10:34:43;15.90;99.00
41756;DHT22;27435;48.480;9.258;2023-05-14T10:37:14;16.00;99.00
41756;DHT22;27435;48.480;9.258;2023-05-14T10:39:57;15.90;99.00
41756;DHT22;27435;48.480;9.258;2023-05-14T10:42:25;15.90;99.00
41756;DHT22;27435;48.480;9.258;2023-05-14T10:45:07;16.20;97.00
41756;DHT22;27435;48.480;9.258;2023-05-14T10:47:42;16.20;95.60
41756;DHT22;27435;48.480;9.258;2023-05-14T10:50:10;16.30;95.90
41756;DHT22;27435;48.480;9.258;2023-05-14T10:52:36;16.30;94.80
41756;DHT22;27435;48.480;9.258;2023-05-14T10:55:05;16.40;94.10
41756;DHT22;27435;48.480;9.258;2023-05-14T10:57:33;16.30;94.70
41756;DHT22;27435;48.480;9.258;2023-05-14T11:00:00;16.10;94.00
41756;DHT22;27435;48.480;9.258;2023-05-14T11:02:31;16.10;94.70
41756;DHT22;27435;48.480;9.258;2023-05-14T11:05:11;16.20;94.40
41756;DHT22;27435;48.480;9.258;2023-05-14T11:07:40;16.50;95.20
41756;DHT22;27435;48.480;9.258;2023-05-14T11:10:09;16.70;92.20
41756;DHT22;27435;48.480;9.258;2023-05-14T11:12:36;16.50;92.30
41756;DHT22;27435;48.480;9.258;2023-05-14T11:15:05;16.50;92.20
41756;DHT22;27435;48.480;9.258;2023-05-14T11:17:32;17.00;93.30
41756;DHT22;27435;48.480;9.258;2023-05-14T11:19:59;17.40;91.10
41756;DHT22;27435;48.480;9.258;2023-05-14T11:22:24;17.70;89.30
41756;DHT22;27435;48.480;9.258;2023-05-14T11:24:50;17.80;89.50
41756;DHT22;27435;48.480;9.258;2023-05-14T11:27:17;17.10;90.20
41756;DHT22;27435;48.480;9.258;2023-05-14T11:29:44;16.50;92.00
41756;DHT22;27435;48.480;9.258;2023-05-14T11:32:13;16.20;93.80
41756;DHT22;27435;48.480;9.258;2023-05-14T11:34:40;16.00;95.10
41756;DHT22;27435;48.480;9.258;2023-05-14T11:37:07;16.00;95.70
41756;DHT22;27435;48.480;9.258;2023-05-14T11:39:34;15.80;96.10
41756;DHT22;27435;48.480;9.258;2023-05-14T11:42:02;15.80;96.00
41756;DHT22;27435;48.480;9.258;2023-05-14T11:44:28;15.90;96.80
41756;DHT22;27435;48.480;9.258;2023-05-14T11:46:55;16.20;96.20
41756;DHT22;27435;48.480;9.258;2023-05-14T11:49:25;16.30;93.70
41756;DHT22;27435;48.480;9.258;2023-05-14T11:52:00;16.50;94.30
41756;DHT22;27435;48.480;9.258;2023-05-14T11:54:30;17.00;92.90
41756;DHT22;27435;48.480;9.258;2023-05-14T11:56:57;17.00;91.00
41756;DHT22;27435;48.480;9.258;2023-05-14T11:59:27;17.10;91.30
41756;DHT22;27435;48.480;9.258;2023-05-14T12:01:53;16.80;91.00
41756;DHT22;27435;48.480;9.258;2023-05-14T12:04:19;16.60;91.60
41756;DHT22;27435;48.480;9.258;2023-05-14T12:06:51;16.30;91.50
41756;DHT22;27435;48.480;9.258;2023-05-14T12:09:21;15.90;93.30
41756;DHT22;27435;48.480;9.258;2023-05-14T12:11:49;15.90;92.70
41756;DHT22;27435;48.480;9.258;2023-05-14T12:14:16;16.30;92.50
41756;DHT22;27435;48.480;9.258;2023-05-14T12:16:43;16.50;91.70
41756;DHT22;27435;48.480;9.258;2023-05-14T12:19:11;16.50;90.90
41756;DHT22;27435;48.480;9.258;2023-05-14T12:21:37;16.60;91.20
41756;DHT22;27435;48.480;9.258;2023-05-14T12:24:03;16.40;90.80
41756;DHT22;27435;48.480;9.258;2023-05-14T12:26:32;16.60;91.60
41756;DHT22;27435;48.480;9.258;2023-05-14T12:28:59;16.90;91.60
41756;DHT22;27435;48.480;9.258;2023-05-14T12:31:35;17.20;91.40
41756;DHT22;27435;48.480;9.258;2023-05-14T12:34:01;17.90;88.50
41756;DHT22;27435;48.480;9.258;2023-05-14T12:36:28;17.40;88.30
41756;DHT22;27435;48.480;9.258;2023-05-14T12:39:00;17.60;88.40
41756;DHT22;27435;48.480;9.258;2023-05-14T12:41:26;17.50;86.70
41756;DHT22;27435;48.480;9.258;2023-05-14T12:43:52;17.60;88.00
41756;DHT22;27435;48.480;9.258;2023-05-14T12:46:18;17.80;87.30
41756;DHT22;27435;48.480;9.258;2023-05-14T12:48:44;17.90;86.90
41756;DHT22;27435;48.480;9.258;2023-05-14T12:51:09;17.80;85.80
41756;DHT22;27435;48.480;9.258;2023-05-14T12:53:35;17.70;86.40
41756;DHT22;27435;48.480;9.258;2023-05-14T12:56:00;17.80;85.60
41756;DHT22;27435;48.480;9.258;2023-05-14T12:58:26;18.00;85.00
41756;DHT22;27435;48.480;9.258;2023-05-14T13:00:52;18.30;84.30
41756;DHT22;27435;48.480;9.258;2023-05-14T13:03:17;18.10;84.30
41756;DHT22;27435;48.480;9.258;2023-05-14T13:05:43;18.40;83.80
41756;DHT22;27435;48.480;9.258;2023-05-14T13:08:09;18.30;83.70
41756;DHT22;27435;48.480;9.258;2023-05-14T13:10:35;18.10;84.10
41756;DHT22;27435;48.480;9.258;2023-05-14T13:13:00;17.90;84.40
41756;DHT22;27435;48.480;9.258;2023-05-14T13:15:27;18.60;84.50
41756;DHT22;27435;48.480;9.258;2023-05-14T13:17:53;19.00;81.90
41756;DHT22;27435;48.480;9.258;2023-05-14T13:20:18;19.10;81.30
41756;DHT22;27435;48.480;9.258;2023-05-14T13:22:44;18.60;81.60
41756;DHT22;27435;48.480;9.258;2023-05-14T13:25:10;19.00;79.80
41756;DHT22;27435;48.480;9.258;2023-05-14T13:27:35;18.80;80.40
41756;DHT22;27435;48.480;9.258;2023-05-14T13:30:02;18.70;79.10
41756;DHT22;27435;48.480;9.258;2023-05-14T13:32:28;18.40;80.10
41756;DHT22;27435;48.480;9.258;2023-05-14T13:34:54;18.50;80.20
41756;DHT22;27435;48.480;9.258;2023-05-14T13:37:20;18.30;79.30
41756;DHT22;27435;48.480;9.258;2023-05-14T13:39:45;18.30;80.00
41756;DHT22;27435;48.480;9.258;2023-05-14T13:42:11;18.20;79.50
41756;DHT22;27435;48.480;9.258;2023-05-14T13:44:36;17.70;80.20
41756;DHT22;27435;48.480;9.258;2023-05-14T13:47:02;17.70;83.90
41756;DHT22;27435;48.480;9.258;2023-05-14T13:49:28;17.90;83.90
41756;DHT22;27435;48.480;9.258;2023-05-14T13:51:54;18.10;82.20
41756;DHT22;27435;48.480;9.258;2023-05-14T13:54:20;17.90;83.20
41756;DHT22;27435;48.480;9.258;2023-05-14T13:56:47;17.80;82.80
41756;DHT22;27435;48.480;9.258;2023-05-14T13:59:13;17.80;81.90
41756;DHT22;27435;48.480;9.258;2023-05-14T14:01:39;17.50;82.20
41756;DHT22;27435;48.480;9.258;2023-05-14T14:04:08;17.50;81.80
41756;DHT22;27435;48.480;9.258;2023-05-14T14:06:34;17.60;79.50
41756;DHT22;27435;48.480;9.258;2023-05-14T14:08:59;17.90;79.30
41756;DHT22;27435;48.480;9.258;2023-05-14T14:11:25;17.90;81.00
41756;DHT22;27435;48.480;9.258;2023-05-14T14:13:51;18.00;82.20
41756;DHT22;27435;48.480;9.258;2023-05-14T14:16:17;18.10;81.40
41756;DHT22;27435;48.480;9.258;2023-05-14T14:18:43;18.40;81.10
41756;DHT22;27435;48.480;9.258;2023-05-14T14:21:08;18.40;80.60
41756;DHT22;27435;48.480;9.258;2023-05-14T14:23:34;18.30;80.00
41756;DHT22;27435;48.480;9.258;2023-05-14T14:26:00;18.50;80.80
41756;DHT22;27435;48.480;9.258;2023-05-14T14:28:26;18.20;82.30
41756;DHT22;27435;48.480;9.258;2023-05-14T14:30:51;18.40;82.60
41756;DHT22;27435;48.480;9.258;2023-05-14T14:33:18;18.40;82.20
41756;DHT22;27435;48.480;9.258;2023-05-14T14:35:44;18.50;83.40
41756;DHT22;27435;48.480;9.258;2023-05-14T14:38:09;18.70;80.90
41756;DHT22;27435;48.480;9.258;2023-05-14T14:40:35;18.40;83.10
41756;DHT22;27435;48.480;9.258;2023-05-14T14:43:01;18.10;82.00
41756;DHT22;27435;48.480;9.258;2023-05-14T14:45:26;18.20;81.90
41756;DHT22;27435;48.480;9.258;2023-05-14T14:48:28;18.20;78.80
41756;DHT22;27435;48.480;9.258;2023-05-14T14:51:05;18.00;78.90
41756;DHT22;27435;48.480;9.258;2023-05-14T14:53:31;18.20;79.20
41756;DHT22;27435;48.480;9.258;2023-05-14T14:55:58;18.20;79.30
41756;DHT22;27435;48.480;9.258;2023-05-14T14:58:25;17.90;80.90
41756;DHT22;27435;48.480;9.258;2023-05-14T15:00:53;17.60;82.00
41756;DHT22;27435;48.480;9.258;2023-05-14T15:03:19;17.30;81.60
41756;DHT22;27435;48.480;9.258;2023-05-14T15:05:45;16.90;82.80
41756;DHT22;27435;48.480;9.258;2023-05-14T15:08:11;16.80;83.90
41756;DHT22;27435;48.480;9.258;2023-05-14T15:10:37;16.60;85.60
41756;DHT22;27435;48.480;9.258;2023-05-14T15:13:04;16.40;85.70
41756;DHT22;27435;48.480;9.258;2023-05-14T15:15:34;16.20;87.70
41756;DHT22;27435;48.480;9.258;2023-05-14T15:18:00;16.10;89.90
41756;DHT22;27435;48.480;9.258;2023-05-14T15:20:26;15.70;94.30
41756;DHT22;27435;48.480;9.258;2023-05-14T15:22:52;15.30;96.30
41756;DHT22;27435;48.480;9.258;2023-05-14T15:25:22;15.30;97.40
41756;DHT22;27435;48.480;9.258;2023-05-14T15:27:49;15.40;95.70
41756;DHT22;27435;48.480;9.258;2023-05-14T15:30:15;15.70;94.00
41756;DHT22;27435;48.480;9.258;2023-05-14T15:32:41;16.10;91.10
41756;DHT22;27435;48.480;9.258;2023-05-14T15:35:07;16.40;90.60
41756;DHT22;27435;48.480;9.258;2023-05-14T15:37:39;16.90;88.50
41756;DHT22;27435;48.480;9.258;2023-05-14T15:40:06;17.00;87.80